Terminal Aerodrome Forecast
Issued by NWS

Home | Current Version | Previous Version | Text Only | Print | Product List | Glossary On
Versions: 1 2 3 4 5 6 7 8 9 10 11 12
659
FTUS42 TJSJ 191751 RRA
TAFISX
TAF
TISX 191751Z 1918/2018 13008KT P6SM -SHRA VCTS SCT030CB BKN120
     FM192300 09005KT P6SM VCSH SCT030 SCT120
     FM201500 13009KT P6SM FEW030 FEW080=

USA.gov is the U.S. government's official web portal to all federal, state and local government web resources and services.